Time;durP1;ratioP1;P1;durP2;ratioP2;P2;SDS_P1;SDS_P2;PMS_P1;PMS_P2;Temp;Humidity;BMP_temperature;BMP_pressure;BME280_temperature;BME280_humidity;BME280_pressure;Samples;Min_cycle;Max_cycle;Signal;HPM_P1;HPM_P2
2022/06/02 00:01:30;;;;;;;6.97;6.13;;;15.10;89.40;;;;;;6132001;23;20470;-82
2022/06/02 00:04:25;;;;;;;7.03;6.43;;;15.10;89.30;;;;;;6133049;23;20396;-84
2022/06/02 00:07:19;;;;;;;7.20;6.50;;;15.20;89.90;;;;;;6134779;23;21169;-80
2022/06/02 00:10:06;;;;;;;6.33;5.77;;;15.20;89.70;;;;;;6119193;23;20483;-81
2022/06/02 00:12:41;;;;;;;6.17;5.60;;;15.10;89.70;;;;;;6120254;23;20388;-82
2022/06/02 00:15:35;;;;;;;7.00;6.13;;;15.20;90.00;;;;;;6149749;23;20407;-82
2022/06/02 00:18:12;;;;;;;7.80;6.97;;;15.10;90.00;;;;;;6110037;23;20430;-82
2022/06/02 00:20:47;;;;;;;7.20;6.50;;;15.10;90.20;;;;;;6150348;23;20426;-84
2022/06/02 00:23:45;;;;;;;8.53;5.63;;;15.00;90.40;;;;;;6138748;23;20395;-83
2022/06/02 00:26:34;;;;;;;6.97;6.37;;;15.00;90.60;;;;;;6152063;23;20503;-82
2022/06/02 00:29:20;;;;;;;7.97;6.80;;;14.90;90.70;;;;;;6146757;23;20458;-83
2022/06/02 00:31:57;;;;;;;7.07;6.37;;;14.90;90.90;;;;;;6128301;23;20404;-82
2022/06/02 00:34:55;;;;;;;8.00;6.33;;;14.90;91.00;;;;;;6104344;23;20407;-83
2022/06/02 00:37:52;;;;;;;8.80;7.17;;;14.80;91.10;;;;;;6128757;23;20396;-83
2022/06/02 00:40:20;;;;;;;7.50;6.90;;;14.80;91.30;;;;;;6128537;23;20393;-84
2022/06/02 00:43:03;;;;;;;6.50;5.90;;;14.70;91.50;;;;;;6129007;23;20396;-83
2022/06/02 00:45:30;;;;;;;7.80;6.50;;;14.70;91.70;;;;;;6127326;23;20402;-82
2022/06/02 00:48:12;;;;;;;6.93;6.23;;;14.60;91.80;;;;;;6129111;23;20388;-84
2022/06/02 00:51:02;;;;;;;7.70;6.90;;;14.70;91.90;;;;;;6130319;23;21037;-83
2022/06/02 01:00:05;;;;;;;7.90;6.37;;;14.60;92.30;;;;;;6129609;23;21026;-83
2022/06/02 01:02:49;;;;;;;8.20;7.13;;;14.70;92.40;;;;;;6129570;23;20439;-81
2022/06/02 01:05:23;;;;;;;8.10;7.30;;;14.60;92.80;;;;;;6130045;23;20406;-83
2022/06/02 01:08:09;;;;;;;8.20;7.30;;;14.70;92.40;;;;;;6105462;23;20449;-82
2022/06/02 01:10:48;;;;;;;8.67;7.87;;;14.70;92.50;;;;;;6130679;23;20454;-82
2022/06/02 01:13:37;;;;;;;8.63;7.73;;;14.70;92.50;;;;;;6133468;23;20456;-84
2022/06/02 01:16:26;;;;;;;8.00;7.30;;;14.60;92.50;;;;;;6131761;23;20400;-83
2022/06/02 01:19:14;;;;;;;7.50;6.90;;;14.60;92.70;;;;;;6129399;23;20813;-83
2022/06/02 01:22:19;;;;;;;8.03;7.23;;;14.50;92.80;;;;;;6131031;23;20503;-84
2022/06/02 01:25:15;;;;;;;8.80;7.77;;;14.50;93.00;;;;;;6139153;23;20396;-82
2022/06/02 01:27:54;;;;;;;8.50;7.70;;;14.50;93.20;;;;;;6138891;23;20396;-84
2022/06/02 01:30:37;;;;;;;8.80;8.00;;;14.40;93.30;;;;;;6141267;23;20435;-83
2022/06/02 01:33:26;;;;;;;8.20;7.40;;;14.40;93.50;;;;;;6142168;23;20417;-82
2022/06/02 01:36:07;;;;;;;8.17;7.37;;;14.30;93.60;;;;;;6115437;23;20415;-82
2022/06/02 01:38:59;;;;;;;8.37;7.57;;;14.30;93.70;;;;;;6139036;23;20451;-83
2022/06/02 01:41:36;;;;;;;8.17;7.47;;;14.30;93.80;;;;;;6140611;23;20464;-82
2022/06/02 01:44:16;;;;;;;8.93;8.03;;;14.30;93.90;;;;;;6138738;23;20423;-83
2022/06/02 01:46:46;;;;;;;8.90;8.10;;;14.20;94.00;;;;;;6140652;23;20616;-84
2022/06/02 01:49:44;;;;;;;8.57;7.40;;;14.30;94.10;;;;;;6142259;23;20507;-82
2022/06/02 01:52:14;;;;;;;8.40;7.33;;;14.30;94.10;;;;;;6108208;23;20392;-83
2022/06/02 01:54:46;;;;;;;8.83;7.17;;;14.20;94.10;;;;;;6143839;23;20484;-82
2022/06/02 01:57:46;;;;;;;10.67;9.03;;;14.10;94.30;;;;;;6141434;23;20408;-82
2022/06/02 02:00:17;;;;;;;8.63;7.80;;;14.10;94.50;;;;;;6140620;23;20475;-82
2022/06/02 02:03:05;;;;;;;8.97;7.53;;;14.00;94.60;;;;;;6136391;23;20432;-83
2022/06/02 02:05:39;;;;;;;8.43;7.70;;;14.10;94.60;;;;;;6133872;23;20411;-83
2022/06/02 02:08:43;;;;;;;8.87;7.97;;;14.00;94.70;;;;;;6108186;23;20435;-84
2022/06/02 02:11:41;;;;;;;10.20;7.83;;;14.00;94.80;;;;;;6133454;23;20415;-84
2022/06/02 02:14:20;;;;;;;7.90;7.20;;;14.00;94.90;;;;;;6134362;23;20479;-84
2022/06/02 02:17:04;;;;;;;6.93;6.33;;;13.90;95.00;;;;;;6134136;23;20398;-83
2022/06/02 02:19:37;;;;;;;8.40;6.93;;;13.90;95.20;;;;;;6151101;23;20437;-81
2022/06/02 02:22:12;;;;;;;9.30;7.50;;;13.80;95.40;;;;;;6151544;23;20480;-82
2022/06/02 02:25:03;;;;;;;7.70;6.90;;;13.80;95.50;;;;;;6151653;23;20419;-84
2022/06/02 02:28:03;;;;;;;7.77;6.70;;;13.80;95.50;;;;;;6125451;23;20364;-83
2022/06/02 02:30:45;;;;;;;6.67;6.07;;;13.80;95.50;;;;;;6148173;23;20475;-82
2022/06/02 02:33:36;;;;;;;7.33;6.63;;;13.90;95.50;;;;;;6146191;23;20412;-83
2022/06/02 02:36:18;;;;;;;6.93;6.30;;;13.90;95.40;;;;;;6139585;23;20392;-82
2022/06/02 02:39:10;;;;;;;7.77;6.73;;;13.90;95.50;;;;;;6127449;23;20438;-83
2022/06/02 02:41:59;;;;;;;7.67;6.90;;;13.80;95.50;;;;;;6129020;23;20392;-84
2022/06/02 02:44:46;;;;;;;6.63;6.03;;;13.80;95.50;;;;;;6127873;23;20403;-84
2022/06/02 02:47:27;;;;;;;8.10;6.30;;;13.80;95.50;;;;;;6103605;23;20424;-83
2022/06/02 02:50:06;;;;;;;9.00;6.60;;;13.70;95.60;;;;;;6103239;23;20449;-83
2022/06/02 02:52:49;;;;;;;7.77;6.70;;;13.70;95.60;;;;;;6107122;23;20388;-83
2022/06/02 02:55:21;;;;;;;7.77;6.97;;;13.70;95.60;;;;;;6143482;23;20452;-83
2022/06/02 02:57:50;;;;;;;9.43;5.80;;;13.60;95.70;;;;;;6144605;23;20479;-82
2022/06/02 03:00:22;;;;;;;7.70;7.00;;;13.60;95.80;;;;;;6132134;23;20408;-82
2022/06/02 03:03:08;;;;;;;8.37;6.90;;;13.60;95.80;;;;;;6132020;23;20435;-82
2022/06/02 03:06:02;;;;;;;7.27;6.57;;;13.70;96.00;;;;;;6104813;23;20884;-83
2022/06/02 03:09:06;;;;;;;9.67;7.30;;;13.60;95.90;;;;;;6130348;23;20434;-84
2022/06/02 03:11:53;;;;;;;8.30;7.50;;;13.60;96.00;;;;;;6106566;23;20411;-82
2022/06/02 03:14:32;;;;;;;7.30;6.60;;;13.60;96.10;;;;;;6110903;23;20416;-82
2022/06/02 03:17:19;;;;;;;8.50;7.67;;;13.50;96.10;;;;;;6136316;23;20420;-82
2022/06/02 03:20:02;;;;;;;8.47;7.57;;;13.60;96.30;;;;;;6138637;23;20427;-83
2022/06/02 03:23:02;;;;;;;8.40;7.60;;;13.50;96.30;;;;;;6135218;23;20392;-81
2022/06/02 03:25:50;;;;;;;7.70;7.00;;;13.50;96.30;;;;;;6132796;23;20422;-82
2022/06/02 03:28:23;;;;;;;8.37;7.20;;;13.50;96.40;;;;;;6108673;23;20459;-82
2022/06/02 03:31:20;;;;;;;8.00;7.00;;;13.50;96.40;;;;;;6137423;23;20478;-82
2022/06/02 03:33:59;;;;;;;10.93;7.50;;;13.40;96.50;;;;;;6137391;23;20399;-81
2022/06/02 03:36:54;;;;;;;8.37;7.57;;;13.40;96.60;;;;;;6108615;23;20428;-82
2022/06/02 03:40:14;;;;;;;8.10;7.33;;;13.40;96.60;;;;;;6104968;23;20440;-83
2022/06/02 03:42:54;;;;;;;7.70;6.90;;;13.30;96.90;;;;;;6098408;23;20907;-82
2022/06/02 03:45:35;;;;;;;7.57;6.87;;;13.30;97.00;;;;;;6131803;23;20418;-83
2022/06/02 03:48:23;;;;;;;8.13;7.40;;;13.30;97.00;;;;;;6129800;23;20427;-83
2022/06/02 03:51:09;;;;;;;8.07;7.30;;;13.30;96.90;;;;;;6102655;23;20435;-82
2022/06/02 03:53:57;;;;;;;12.90;8.60;;;13.30;97.00;;;;;;6128478;23;20578;-84
2022/06/02 03:56:36;;;;;;;9.30;8.07;;;13.30;97.00;;;;;;6128991;23;20951;-82
2022/06/02 03:59:03;;;;;;;9.80;8.80;;;13.50;96.40;;;;;;6128843;23;20506;-83
2022/06/02 04:01:37;;;;;;;10.30;9.13;;;13.80;95.80;;;;;;6127278;23;20396;-83
2022/06/02 04:04:22;;;;;;;10.67;9.60;;;13.80;95.70;;;;;;6127909;23;20388;-83
2022/06/02 04:07:18;;;;;;;10.60;9.50;;;13.70;95.70;;;;;;6126909;23;20422;-83
2022/06/02 04:10:07;;;;;;;10.13;9.03;;;13.60;96.00;;;;;;6000696;23;20456;-83
2022/06/02 04:15:46;;;;;;;10.30;9.30;;;13.60;96.40;;;;;;6127953;23;20388;-83
2022/06/02 04:18:29;;;;;;;10.87;8.87;;;13.50;96.10;;;;;;6128414;23;20483;-83
2022/06/02 04:21:09;;;;;;;9.73;8.80;;;13.40;96.30;;;;;;6104353;23;20418;-83
2022/06/02 04:24:06;;;;;;;13.80;10.60;;;13.30;96.40;;;;;;6128700;23;20389;-82
2022/06/02 04:26:33;;;;;;;12.57;10.00;;;13.30;96.50;;;;;;6102669;23;20422;-81
2022/06/02 04:29:03;;;;;;;10.47;9.47;;;13.20;96.60;;;;;;6102914;23;20451;-83
2022/06/02 04:31:52;;;;;;;10.43;9.30;;;13.00;96.80;;;;;;6129769;23;20458;-83
2022/06/02 04:34:58;;;;;;;11.87;9.20;;;12.90;97.20;;;;;;6131401;23;20388;-82
2022/06/02 04:37:43;;;;;;;14.40;11.00;;;13.10;97.40;;;;;;6110310;23;20420;-83
2022/06/02 04:40:45;;;;;;;10.57;9.57;;;13.30;97.10;;;;;;6132860;23;20958;-83
2022/06/02 04:43:36;;;;;;;11.63;10.10;;;13.30;97.00;;;;;;6104613;23;20414;-83
2022/06/02 04:46:29;;;;;;;10.27;9.23;;;13.40;96.50;;;;;;6135384;23;20398;-83
2022/06/02 04:49:21;;;;;;;13.10;11.80;;;13.40;96.50;;;;;;6148870;23;20431;-84
2022/06/02 04:52:01;;;;;;;12.73;10.53;;;13.30;96.80;;;;;;6112987;23;20416;-83
2022/06/02 04:54:57;;;;;;;13.63;9.77;;;13.10;97.00;;;;;;6103077;23;20395;-81
2022/06/02 04:57:35;;;;;;;10.60;9.20;;;13.10;97.40;;;;;;6128678;23;20407;-83
2022/06/02 05:00:27;;;;;;;13.60;10.70;;;13.10;97.60;;;;;;6115098;23;20422;-83
2022/06/02 05:03:22;;;;;;;11.30;9.10;;;13.10;97.50;;;;;;6133831;23;20393;-84
2022/06/02 05:05:52;;;;;;;13.33;10.07;;;13.20;97.50;;;;;;6131553;23;20423;-84
2022/06/02 05:08:35;;;;;;;15.33;9.77;;;13.20;97.40;;;;;;6132317;23;20428;-84
2022/06/02 05:11:12;;;;;;;13.43;11.73;;;13.40;97.40;;;;;;6130537;23;20454;-85
2022/06/02 05:13:52;;;;;;;12.70;10.77;;;13.90;96.30;;;;;;6104753;23;20455;-84
2022/06/02 05:16:36;;;;;;;12.67;11.37;;;14.00;96.00;;;;;;6129141;23;20503;-85
2022/06/02 05:19:06;;;;;;;11.63;10.43;;;13.90;95.90;;;;;;6130110;23;20419;-85
2022/06/02 05:21:57;;;;;;;22.23;12.50;;;13.80;96.20;;;;;;6130235;23;20420;-85
2022/06/02 05:24:52;;;;;;;12.30;11.00;;;13.80;96.20;;;;;;6122686;23;20476;-82
2022/06/02 05:27:43;;;;;;;15.83;11.70;;;14.00;96.10;;;;;;6149117;23;20459;-83
2022/06/02 05:30:33;;;;;;;14.07;12.07;;;13.90;96.00;;;;;;6145606;23;20471;-82
2022/06/02 05:33:30;;;;;;;14.10;11.60;;;13.80;96.20;;;;;;6144819;23;20404;-83
2022/06/02 05:36:18;;;;;;;12.03;10.83;;;13.80;96.50;;;;;;6141784;23;20416;-84
2022/06/02 05:39:12;;;;;;;14.90;12.10;;;13.90;96.60;;;;;;6130327;23;20422;-84
2022/06/02 05:41:51;;;;;;;14.30;12.00;;;13.90;96.70;;;;;;6132606;23;20423;-83
2022/06/02 05:44:30;;;;;;;13.90;11.87;;;14.20;96.90;;;;;;6133038;23;20399;-84
2022/06/02 05:47:27;;;;;;;14.37;11.00;;;14.10;96.70;;;;;;6132771;23;20740;-84
2022/06/02 05:50:25;;;;;;;15.30;11.67;;;14.20;96.90;;;;;;6130623;23;20546;-84
2022/06/02 05:53:16;;;;;;;13.90;12.37;;;14.30;96.60;;;;;;6117466;23;20919;-84
2022/06/02 05:56:08;;;;;;;15.23;11.73;;;14.30;96.60;;;;;;6130297;23;20410;-82
2022/06/02 05:58:53;;;;;;;16.03;12.40;;;14.10;96.80;;;;;;6129870;23;20462;-82
2022/06/02 06:01:32;;;;;;;13.50;12.10;;;14.20;97.10;;;;;;6102322;23;20499;-83
2022/06/02 06:04:24;;;;;;;14.07;12.57;;;14.40;96.60;;;;;;6107055;23;20895;-82
2022/06/02 06:06:56;;;;;;;13.40;11.73;;;14.50;96.70;;;;;;6137357;23;20412;-83
2022/06/02 06:09:49;;;;;;;15.03;12.90;;;14.50;96.20;;;;;;6142890;23;20411;-81
2022/06/02 06:12:44;;;;;;;14.80;12.03;;;14.30;96.60;;;;;;6132809;23;20693;-84
2022/06/02 06:15:30;;;;;;;15.37;12.70;;;14.60;96.60;;;;;;6106664;23;20388;-84
2022/06/02 06:18:10;;;;;;;14.50;11.97;;;14.40;96.70;;;;;;6134304;23;20486;-85
2022/06/02 06:21:00;;;;;;;14.73;13.30;;;14.60;96.80;;;;;;6108741;23;20475;-84
2022/06/02 06:23:51;;;;;;;15.27;13.67;;;14.90;96.50;;;;;;6134239;23;20403;-83
2022/06/02 06:26:29;;;;;;;15.30;12.83;;;15.10;95.80;;;;;;6133726;23;20433;-83
2022/06/02 06:29:44;;;;;;;16.87;13.50;;;15.30;95.50;;;;;;6133777;23;20463;-83
2022/06/02 06:32:49;;;;;;;19.87;12.93;;;15.30;95.40;;;;;;6109127;23;20502;-84
2022/06/02 06:35:40;;;;;;;20.80;15.17;;;15.30;95.00;;;;;;6135747;23;20422;-82
2022/06/02 06:38:26;;;;;;;17.57;13.47;;;15.20;95.00;;;;;;6132872;23;20435;-82
2022/06/02 06:41:01;;;;;;;17.33;13.53;;;15.10;95.40;;;;;;6108067;23;20426;-83
2022/06/02 06:43:49;;;;;;;16.53;14.87;;;15.00;95.30;;;;;;6116859;23;20388;-83
2022/06/02 06:46:30;;;;;;;19.60;14.40;;;15.00;95.60;;;;;;6133702;23;20430;-83
2022/06/02 06:49:11;;;;;;;20.40;15.40;;;15.00;95.60;;;;;;6135042;23;20451;-83
2022/06/02 06:51:37;;;;;;;18.77;14.57;;;15.00;95.80;;;;;;6133933;23;20419;-82
2022/06/02 06:54:32;;;;;;;16.97;15.20;;;15.20;95.80;;;;;;6133968;23;20442;-84
2022/06/02 06:57:16;;;;;;;18.13;15.60;;;15.30;95.30;;;;;;6145308;23;20499;-83
2022/06/02 07:00:03;;;;;;;29.00;17.93;;;15.30;95.00;;;;;;6148042;23;20427;-81
2022/06/02 07:02:53;;;;;;;21.73;16.83;;;15.40;94.90;;;;;;6119954;23;20372;-82
2022/06/02 07:05:57;;;;;;;19.60;16.47;;;15.60;94.60;;;;;;6148222;23;20447;-83
2022/06/02 07:08:43;;;;;;;20.43;17.13;;;15.60;94.40;;;;;;6149188;23;20423;-85
2022/06/02 07:14:39;;;;;;;24.37;18.53;;;15.80;94.30;;;;;;6151325;23;20423;-83
2022/06/02 07:17:40;;;;;;;23.47;18.50;;;16.10;94.20;;;;;;6136506;23;20396;-82
2022/06/02 07:20:59;;;;;;;18.77;16.17;;;16.20;93.60;;;;;;6133988;23;20400;-83
2022/06/02 07:23:41;;;;;;;21.73;17.00;;;16.20;93.40;;;;;;6107018;23;20416;-83
2022/06/02 07:26:27;;;;;;;18.83;16.83;;;16.10;93.70;;;;;;6105432;23;20426;-84
2022/06/02 07:29:05;;;;;;;22.00;17.40;;;15.90;94.00;;;;;;6107546;23;20466;-83
2022/06/02 07:32:02;;;;;;;26.37;17.73;;;16.20;93.80;;;;;;6106363;23;20438;-83
2022/06/02 07:34:34;;;;;;;18.50;16.50;;;16.10;93.70;;;;;;6132252;23;20494;-83
2022/06/02 07:37:32;;;;;;;18.77;16.23;;;16.10;94.00;;;;;;6132067;23;20435;-84
2022/06/02 07:40:27;;;;;;;19.03;16.37;;;16.60;93.40;;;;;;6131003;23;20434;-84
2022/06/02 07:43:02;;;;;;;20.90;17.63;;;16.80;93.20;;;;;;6132788;23;20442;-83
2022/06/02 07:45:50;;;;;;;19.90;17.30;;;17.00;91.90;;;;;;6133559;23;20419;-83
2022/06/02 07:48:35;;;;;;;23.53;17.80;;;16.70;91.80;;;;;;6132339;23;20424;-84
2022/06/02 07:51:34;;;;;;;19.03;17.13;;;16.20;92.80;;;;;;6112049;23;20939;-84
2022/06/02 07:54:23;;;;;;;21.83;16.50;;;16.40;92.60;;;;;;6146249;23;20487;-83
2022/06/02 07:57:08;;;;;;;20.37;18.00;;;16.60;92.30;;;;;;6152312;23;20399;-81
2022/06/02 08:00:02;;;;;;;23.83;19.33;;;16.40;92.00;;;;;;6144104;23;20439;-84
2022/06/02 08:02:51;;;;;;;19.57;17.57;;;16.10;92.80;;;;;;6136908;23;20416;-84
2022/06/02 08:05:35;;;;;;;21.70;18.60;;;16.70;92.30;;;;;;6136769;23;20408;-85
2022/06/02 08:08:20;;;;;;;20.57;18.33;;;16.60;92.10;;;;;;6110051;23;20384;-84
2022/06/02 08:11:19;;;;;;;19.63;16.50;;;16.90;91.60;;;;;;6137165;23;20454;-83
2022/06/02 08:13:52;;;;;;;18.60;16.23;;;17.00;90.60;;;;;;6139133;23;20384;-81
2022/06/02 08:16:37;;;;;;;20.47;17.37;;;16.80;90.60;;;;;;6138869;23;20475;-84
2022/06/02 08:19:16;;;;;;;17.53;15.03;;;17.00;90.90;;;;;;6139634;23;20454;-83
2022/06/02 08:21:47;;;;;;;17.13;15.30;;;17.40;90.90;;;;;;6139394;23;20760;-82
2022/06/02 08:24:34;;;;;;;17.47;14.57;;;17.90;89.90;;;;;;6138093;23;20384;-84
2022/06/02 08:27:41;;;;;;;18.60;15.90;;;18.00;86.40;;;;;;6140121;23;20491;-83
2022/06/02 08:30:33;;;;;;;14.87;13.23;;;17.80;86.30;;;;;;6139793;23;20487;-83
2022/06/02 08:33:12;;;;;;;16.63;13.77;;;17.70;86.70;;;;;;6138960;23;20396;-82
2022/06/02 08:35:45;;;;;;;14.10;12.60;;;18.00;86.30;;;;;;6140161;23;20404;-83
2022/06/02 08:38:38;;;;;;;14.93;13.40;;;18.70;82.80;;;;;;6136933;23;20438;-84
2022/06/02 08:41:28;;;;;;;15.97;14.37;;;19.70;80.60;;;;;;6108269;23;20475;-84
2022/06/02 08:44:34;;;;;;;16.60;14.70;;;20.40;77.30;;;;;;6116460;23;20412;-84
2022/06/02 08:47:46;;;;;;;15.70;14.30;;;20.70;73.80;;;;;;6109318;23;20386;-84
2022/06/02 08:50:41;;;;;;;15.27;13.83;;;20.70;74.20;;;;;;6107663;23;20426;-83
2022/06/02 08:53:42;;;;;;;13.60;12.20;;;20.70;72.90;;;;;;6145296;23;20392;-84
2022/06/02 08:56:41;;;;;;;10.50;9.40;;;20.60;70.80;;;;;;6149318;23;20426;-82
2022/06/02 08:59:17;;;;;;;9.30;8.40;;;21.40;65.00;;;;;;6116134;23;20436;-84
2022/06/02 09:02:02;;;;;;;10.27;8.70;;;21.30;64.10;;;;;;6130429;23;20508;-84
2022/06/02 09:04:47;;;;;;;9.70;8.80;;;21.50;62.60;;;;;;6133326;23;20476;-83
2022/06/02 09:07:45;;;;;;;10.57;9.33;;;21.50;62.70;;;;;;6134795;23;20392;-84
2022/06/02 09:10:30;;;;;;;11.37;10.20;;;21.90;61.50;;;;;;6129699;23;20482;-83
2022/06/02 09:13:21;;;;;;;9.80;9.00;;;21.70;59.70;;;;;;6106037;23;20407;-83
2022/06/02 09:16:21;;;;;;;9.10;8.40;;;21.90;60.30;;;;;;6134489;23;20415;-85
2022/06/02 09:19:01;;;;;;;9.70;8.80;;;22.80;57.60;;;;;;6133919;23;20434;-84
2022/06/02 09:21:52;;;;;;;9.53;8.63;;;23.20;57.80;;;;;;6109962;23;20415;-84
2022/06/02 09:24:26;;;;;;;8.33;7.63;;;24.50;55.50;;;;;;6108608;23;20760;-83
2022/06/02 09:27:33;;;;;;;9.30;8.53;;;25.30;53.30;;;;;;6134283;23;20426;-83
2022/06/02 09:30:03;;;;;;;11.07;9.30;;;24.60;52.80;;;;;;6138441;23;20435;-83
2022/06/02 09:33:33;;;;;;;8.80;8.00;;;23.50;54.00;;;;;;6142743;23;20750;-84
2022/06/02 09:36:14;;;;;;;8.40;7.70;;;22.90;55.80;;;;;;6138294;23;20417;-84
2022/06/02 09:39:05;;;;;;;9.00;8.30;;;23.30;56.00;;;;;;6136775;23;20436;-83
2022/06/02 09:41:35;;;;;;;8.97;8.17;;;23.80;55.00;;;;;;6112574;23;20400;-85
2022/06/02 09:44:25;;;;;;;8.00;7.20;;;23.80;54.80;;;;;;6142384;23;20419;-84
2022/06/02 09:47:13;;;;;;;8.33;7.63;;;24.60;52.40;;;;;;6113000;23;20482;-84
2022/06/02 09:50:00;;;;;;;8.57;7.87;;;25.00;50.10;;;;;;6150711;23;20429;-84
2022/06/02 09:52:43;;;;;;;19.93;18.23;;;24.50;50.70;;;;;;6147746;23;20425;-83
2022/06/02 09:55:35;;;;;;;8.27;6.90;;;24.40;51.80;;;;;;6141990;23;20392;-80
2022/06/02 09:58:08;;;;;;;6.30;5.70;;;24.20;51.00;;;;;;6137354;23;20399;-84
2022/06/02 10:00:48;;;;;;;6.30;5.80;;;24.10;49.80;;;;;;6136743;23;20731;-85
2022/06/02 10:03:40;;;;;;;6.00;5.50;;;24.50;49.00;;;;;;6135400;23;20410;-84
2022/06/02 10:06:21;;;;;;;4.70;4.30;;;25.70;47.20;;;;;;6109644;23;20467;-84
2022/06/02 10:09:16;;;;;;;4.40;4.10;;;26.40;45.10;;;;;;6134896;23;20431;-83
2022/06/02 10:11:48;;;;;;;4.57;4.23;;;25.90;44.10;;;;;;6134748;23;20454;-83
2022/06/02 10:14:35;;;;;;;4.77;4.10;;;26.70;43.30;;;;;;6133887;23;20466;-84
2022/06/02 10:17:30;;;;;;;4.60;4.20;;;25.90;43.60;;;;;;6133506;23;20405;-83
2022/06/02 10:20:43;;;;;;;4.80;3.83;;;27.30;42.30;;;;;;6134815;23;20466;-83
2022/06/02 10:23:22;;;;;;;4.37;4.00;;;28.30;42.20;;;;;;6046244;23;20431;-83
2022/06/02 10:25:52;;;;;;;4.83;4.47;;;28.60;40.90;;;;;;6155057;23;20478;-82
2022/06/02 10:28:43;;;;;;;4.83;4.30;;;28.80;39.70;;;;;;6138722;23;20449;-84
2022/06/02 10:31:28;;;;;;;6.30;5.80;;;28.40;39.70;;;;;;6137014;23;20431;-83
2022/06/02 10:34:26;;;;;;;3.93;3.63;;;28.00;41.00;;;;;;6136768;23;20412;-83
2022/06/02 10:36:56;;;;;;;4.27;3.97;;;27.30;41.00;;;;;;6138662;23;20408;-83
2022/06/02 10:39:41;;;;;;;4.13;3.83;;;28.20;41.00;;;;;;6138069;23;20432;-85
2022/06/02 10:45:51;;;;;;;5.07;4.70;;;28.40;38.20;;;;;;6166229;23;20891;-85
2022/06/02 10:48:52;;;;;;;4.17;3.77;;;27.40;39.40;;;;;;6138985;23;20430;-85
2022/06/02 10:51:49;;;;;;;4.33;3.93;;;27.00;39.80;;;;;;6166365;23;20439;-85
2022/06/02 10:54:50;;;;;;;4.07;3.83;;;26.70;40.50;;;;;;6163447;23;20411;-85
2022/06/02 10:57:28;;;;;;;3.77;3.47;;;26.70;40.10;;;;;;6163734;23;20403;-83
2022/06/02 11:00:09;;;;;;;3.80;3.50;;;26.90;40.20;;;;;;6138089;23;20474;-85
2022/06/02 11:03:18;;;;;;;3.47;3.23;;;26.80;39.90;;;;;;6166116;23;20405;-85
2022/06/02 11:06:24;;;;;;;3.23;3.03;;;28.00;38.70;;;;;;6167875;23;20449;-84
2022/06/02 11:09:13;;;;;;;3.50;3.30;;;27.80;38.90;;;;;;6138683;23;20427;-85
2022/06/02 11:11:57;;;;;;;3.63;3.33;;;28.30;37.60;;;;;;6162653;23;20430;-82
2022/06/02 11:14:59;;;;;;;3.70;3.40;;;28.00;38.10;;;;;;6164158;23;20395;-83
2022/06/02 11:17:56;;;;;;;3.80;3.13;;;27.60;38.60;;;;;;6139227;23;20406;-84
2022/06/02 11:20:53;;;;;;;3.50;3.30;;;27.30;39.30;;;;;;6159426;23;20415;-84
2022/06/02 11:23:24;;;;;;;3.53;3.33;;;28.20;37.80;;;;;;6166846;23;20450;-84
2022/06/02 11:26:27;;;;;;;3.50;3.30;;;27.50;39.40;;;;;;6145036;23;20407;-82
2022/06/02 11:29:13;;;;;;;3.90;3.70;;;27.00;39.80;;;;;;6182108;23;20454;-83
2022/06/02 11:32:04;;;;;;;4.40;4.10;;;27.60;39.60;;;;;;6182261;23;20445;-83
2022/06/02 11:34:49;;;;;;;3.77;3.17;;;28.10;37.80;;;;;;6182158;23;20417;-83
2022/06/02 11:37:56;;;;;;;3.33;3.03;;;27.40;38.10;;;;;;6182021;23;20387;-83
2022/06/02 11:40:52;;;;;;;3.80;3.50;;;26.40;38.40;;;;;;6158615;23;20402;-85
2022/06/02 11:43:26;;;;;;;3.90;3.40;;;27.50;39.40;;;;;;6149678;23;20407;-84
2022/06/02 11:45:56;;;;;;;3.27;3.03;;;27.40;38.30;;;;;;6177060;23;20395;-83
2022/06/02 11:48:51;;;;;;;5.30;3.50;;;27.50;38.50;;;;;;6151910;23;20407;-83
2022/06/02 11:51:24;;;;;;;4.40;4.10;;;28.50;37.40;;;;;;6161529;23;20434;-83
2022/06/02 11:54:09;;;;;;;4.10;3.70;;;28.50;36.50;;;;;;6160063;23;20410;-83
2022/06/02 11:57:02;;;;;;;5.20;4.03;;;28.20;37.20;;;;;;6159722;23;20418;-82
2022/06/02 12:00:11;;;;;;;4.33;4.03;;;28.50;37.00;;;;;;6160428;23;20430;-83
2022/06/02 12:02:57;;;;;;;3.33;3.13;;;27.80;37.00;;;;;;6134247;23;20411;-81
2022/06/02 12:05:52;;;;;;;3.23;3.03;;;26.40;39.00;;;;;;6160974;23;20384;-83
2022/06/02 12:08:56;;;;;;;3.20;2.90;;;25.90;40.70;;;;;;6161133;23;21020;-82
2022/06/02 12:11:35;;;;;;;3.10;2.87;;;25.60;41.10;;;;;;6163396;23;20423;-84
2022/06/02 12:14:07;;;;;;;3.40;3.10;;;25.50;41.00;;;;;;6165338;23;20989;-83
2022/06/02 12:17:06;;;;;;;4.40;3.53;;;25.40;40.90;;;;;;6166404;23;20403;-81
2022/06/02 12:20:02;;;;;;;3.47;3.00;;;25.30;41.60;;;;;;6141307;23;20448;-84
2022/06/02 12:22:32;;;;;;;4.23;3.80;;;25.90;41.60;;;;;;6167424;23;20414;-82
2022/06/02 12:25:33;;;;;;;3.13;2.83;;;26.20;40.60;;;;;;6168891;23;20471;-83
2022/06/02 12:28:12;;;;;;;4.07;3.70;;;26.00;40.80;;;;;;6136971;23;20411;-82
2022/06/02 12:30:56;;;;;;;3.10;2.90;;;25.90;40.50;;;;;;6163514;23;20414;-83
2022/06/02 12:33:55;;;;;;;3.17;2.87;;;25.40;41.50;;;;;;6163726;23;20392;-82
2022/06/02 12:36:57;;;;;;;5.47;3.67;;;25.20;42.00;;;;;;6162851;23;20387;-82
2022/06/02 12:39:47;;;;;;;3.47;3.17;;;24.80;42.60;;;;;;6163086;23;20928;-84
2022/06/02 12:42:49;;;;;;;5.00;3.57;;;25.20;41.80;;;;;;6137618;23;20919;-83
2022/06/02 12:45:35;;;;;;;4.50;2.93;;;26.10;40.50;;;;;;6085292;23;20429;-85
2022/06/02 12:48:32;;;;;;;2.60;2.40;;;25.80;40.20;;;;;;6162412;23;20482;-83
2022/06/02 12:51:20;;;;;;;6.57;2.53;;;26.30;40.00;;;;;;6162849;23;20397;-83
2022/06/02 12:54:15;;;;;;;2.50;2.30;;;26.70;39.10;;;;;;6176976;23;20454;-83
2022/06/02 12:57:18;;;;;;;3.63;3.00;;;26.10;39.50;;;;;;6156180;23;20395;-82
2022/06/02 13:00:16;;;;;;;3.00;2.80;;;25.70;39.40;;;;;;6167833;23;20434;-83
2022/06/02 13:03:11;;;;;;;3.07;2.87;;;26.00;39.70;;;;;;6165759;23;20414;-83
2022/06/02 13:06:14;;;;;;;2.77;2.57;;;26.50;39.20;;;;;;6168856;23;20478;-82
2022/06/02 13:08:59;;;;;;;3.97;3.47;;;27.20;38.80;;;;;;6166884;23;20464;-84
2022/06/02 13:11:57;;;;;;;2.50;2.30;;;26.70;37.60;;;;;;6167875;23;20427;-81
2022/06/02 13:14:52;;;;;;;6.97;6.30;;;26.40;39.40;;;;;;6166477;23;20419;-82
2022/06/02 13:17:56;;;;;;;2.90;2.70;;;26.80;39.70;;;;;;6141117;23;20418;-83
2022/06/02 13:20:54;;;;;;;3.27;2.97;;;27.10;38.40;;;;;;6142704;23;20388;-84
2022/06/02 13:23:23;;;;;;;2.60;2.40;;;26.70;39.50;;;;;;6166515;23;20471;-84
2022/06/02 13:26:19;;;;;;;2.80;2.60;;;26.20;39.80;;;;;;6167481;23;20407;-83
2022/06/02 13:29:09;;;;;;;3.40;3.10;;;26.50;40.00;;;;;;6167726;23;20435;-84
2022/06/02 13:32:01;;;;;;;2.50;2.30;;;26.30;39.90;;;;;;6166029;23;20533;-84
2022/06/02 13:34:53;;;;;;;2.80;2.47;;;26.00;39.40;;;;;;6136062;23;20407;-83
2022/06/02 13:37:19;;;;;;;7.20;2.77;;;25.40;40.50;;;;;;6161987;23;20431;-82
2022/06/02 13:40:29;;;;;;;2.43;2.23;;;25.00;41.60;;;;;;6163240;23;20509;-83
2022/06/02 13:43:13;;;;;;;2.50;2.20;;;24.90;42.10;;;;;;6140754;23;20418;-84
2022/06/02 13:46:16;;;;;;;2.50;2.30;;;25.30;41.30;;;;;;6145603;23;20463;-84
2022/06/02 13:49:02;;;;;;;4.43;2.43;;;25.50;41.60;;;;;;6147349;23;20784;-82
2022/06/02 13:52:00;;;;;;;2.13;1.93;;;25.50;41.90;;;;;;6149663;23;20417;-82
2022/06/02 13:58:06;;;;;;;2.63;2.43;;;25.40;41.30;;;;;;6169909;23;20390;-83
2022/06/02 14:01:16;;;;;;;2.80;2.50;;;24.90;42.80;;;;;;6154178;23;20395;-82
2022/06/02 14:04:21;;;;;;;2.60;2.47;;;25.10;43.60;;;;;;6182474;23;20418;-84
2022/06/02 14:07:18;;;;;;;2.30;2.20;;;25.60;42.10;;;;;;6182429;23;20452;-83
2022/06/02 14:09:48;;;;;;;2.53;2.33;;;25.20;42.60;;;;;;6163434;23;20509;-83
2022/06/02 14:12:26;;;;;;;3.13;2.30;;;25.30;42.60;;;;;;6157833;23;20439;-83
2022/06/02 14:15:16;;;;;;;2.33;2.13;;;25.10;43.40;;;;;;6182716;23;20414;-83
2022/06/02 14:18:18;;;;;;;2.73;2.53;;;25.30;42.20;;;;;;6156403;23;20550;-83
2022/06/02 14:20:59;;;;;;;2.10;2.00;;;24.90;42.10;;;;;;6182292;23;20405;-84
2022/06/02 14:23:26;;;;;;;2.50;2.30;;;24.70;43.20;;;;;;6181852;23;20406;-82
2022/06/02 14:26:05;;;;;;;3.10;2.30;;;24.80;42.50;;;;;;6181803;23;20538;-84
2022/06/02 14:29:05;;;;;;;1.67;1.57;;;24.80;43.40;;;;;;6153421;23;20454;-83
2022/06/02 14:31:48;;;;;;;3.00;2.07;;;24.70;43.40;;;;;;6174828;23;20427;-83
2022/06/02 14:34:24;;;;;;;1.77;1.67;;;24.70;43.40;;;;;;6123476;23;20388;-82
2022/06/02 14:37:25;;;;;;;2.53;2.33;;;25.00;43.00;;;;;;6149297;23;20452;-83
2022/06/02 14:40:14;;;;;;;4.33;2.10;;;24.90;42.20;;;;;;6145993;23;20451;-80
2022/06/02 14:43:10;;;;;;;2.10;2.00;;;24.80;42.50;;;;;;6126354;23;20408;-83
2022/06/02 14:46:07;;;;;;;2.07;1.97;;;24.80;41.70;;;;;;6149378;23;20414;-84